sensor_id;sensor_type;location;lat;lon;timestamp;pressure;altitude;pressure_sealevel;temperature;humidity
35647;BME280;28680;45.642;13.756;2022-09-09T00:06:32;101070.13;;;21.93;100.00
35647;BME280;28680;45.642;13.756;2022-09-09T00:11:52;101061.00;;;22.03;100.00
35647;BME280;28680;45.642;13.756;2022-09-09T00:20:52;101021.69;;;22.18;100.00
35647;BME280;28680;45.642;13.756;2022-09-09T00:23:39;101013.59;;;22.11;100.00
35647;BME280;28680;45.642;13.756;2022-09-09T00:31:45;101016.41;;;21.88;100.00
35647;BME280;28680;45.642;13.756;2022-09-09T00:34:22;101024.16;;;21.83;100.00
35647;BME280;28680;45.642;13.756;2022-09-09T00:36:52;101015.50;;;21.81;100.00
35647;BME280;28680;45.642;13.756;2022-09-09T00:42:18;100996.72;;;21.89;100.00
35647;BME280;28680;45.642;13.756;2022-09-09T00:45:01;100997.22;;;21.99;100.00
35647;BME280;28680;45.642;13.756;2022-09-09T00:47:46;100984.31;;;22.03;100.00
35647;BME280;28680;45.642;13.756;2022-09-09T00:58:12;100994.38;;;22.01;100.00
35647;BME280;28680;45.642;13.756;2022-09-09T01:00:49;100991.06;;;21.99;100.00
35647;BME280;28680;45.642;13.756;2022-09-09T01:12:08;101004.28;;;21.86;100.00
35647;BME280;28680;45.642;13.756;2022-09-09T01:25:20;101021.72;;;21.67;100.00
35647;BME280;28680;45.642;13.756;2022-09-09T01:27:52;101017.38;;;21.66;100.00
35647;BME280;28680;45.642;13.756;2022-09-09T01:30:21;101020.69;;;21.68;100.00
35647;BME280;28680;45.642;13.756;2022-09-09T01:32:53;101013.31;;;21.70;100.00
35647;BME280;28680;45.642;13.756;2022-09-09T01:37:57;101008.81;;;21.70;100.00
35647;BME280;28680;45.642;13.756;2022-09-09T01:40:24;101008.59;;;21.87;100.00
35647;BME280;28680;45.642;13.756;2022-09-09T01:42:50;101001.34;;;21.80;100.00
35647;BME280;28680;45.642;13.756;2022-09-09T01:45:16;101009.19;;;21.67;100.00
35647;BME280;28680;45.642;13.756;2022-09-09T01:47:43;101004.59;;;21.61;100.00
35647;BME280;28680;45.642;13.756;2022-09-09T01:50:13;100993.25;;;21.74;100.00
35647;BME280;28680;45.642;13.756;2022-09-09T01:52:40;100995.81;;;21.82;100.00
35647;BME280;28680;45.642;13.756;2022-09-09T01:55:08;100993.59;;;21.86;100.00
35647;BME280;28680;45.642;13.756;2022-09-09T02:00:22;100993.78;;;21.84;100.00
35647;BME280;28680;45.642;13.756;2022-09-09T02:05:41;101003.00;;;21.82;100.00
35647;BME280;28680;45.642;13.756;2022-09-09T02:11:16;100996.78;;;21.96;100.00
35647;BME280;28680;45.642;13.756;2022-09-09T02:13:48;100994.91;;;21.96;100.00
35647;BME280;28680;45.642;13.756;2022-09-09T02:16:35;100998.69;;;22.02;100.00
35647;BME280;28680;45.642;13.756;2022-09-09T02:19:25;100998.91;;;22.00;100.00
35647;BME280;28680;45.642;13.756;2022-09-09T02:21:56;101005.13;;;22.08;100.00
35647;BME280;28680;45.642;13.756;2022-09-09T02:24:23;101006.16;;;22.07;100.00
35647;BME280;28680;45.642;13.756;2022-09-09T02:26:52;100999.25;;;21.97;100.00
35647;BME280;28680;45.642;13.756;2022-09-09T02:29:33;101005.91;;;21.87;100.00
35647;BME280;28680;45.642;13.756;2022-09-09T02:32:05;101016.38;;;21.82;100.00
35647;BME280;28680;45.642;13.756;2022-09-09T02:34:35;101019.56;;;21.77;100.00
35647;BME280;28680;45.642;13.756;2022-09-09T02:37:03;101030.44;;;21.75;100.00
35647;BME280;28680;45.642;13.756;2022-09-09T02:39:29;101034.41;;;21.79;100.00
35647;BME280;28680;45.642;13.756;2022-09-09T02:41:55;101025.75;;;21.77;100.00
35647;BME280;28680;45.642;13.756;2022-09-09T02:44:21;101013.28;;;21.85;100.00
35647;BME280;28680;45.642;13.756;2022-09-09T02:50:13;100993.84;;;21.91;100.00
35647;BME280;28680;45.642;13.756;2022-09-09T02:58:11;100967.38;;;21.96;100.00
35647;BME280;28680;45.642;13.756;2022-09-09T03:00:39;100961.22;;;21.95;100.00
35647;BME280;28680;45.642;13.756;2022-09-09T03:03:07;100959.50;;;21.88;100.00
35647;BME280;28680;45.642;13.756;2022-09-09T03:05:34;100944.28;;;21.88;100.00
35647;BME280;28680;45.642;13.756;2022-09-09T03:08:02;100935.44;;;21.88;100.00
35647;BME280;28680;45.642;13.756;2022-09-09T03:10:28;100943.28;;;21.89;100.00
35647;BME280;28680;45.642;13.756;2022-09-09T03:12:54;100939.13;;;21.87;100.00
35647;BME280;28680;45.642;13.756;2022-09-09T03:15:20;100938.13;;;21.88;100.00
35647;BME280;28680;45.642;13.756;2022-09-09T03:17:46;100927.81;;;21.85;100.00
35647;BME280;28680;45.642;13.756;2022-09-09T03:20:12;100932.13;;;21.86;100.00
35647;BME280;28680;45.642;13.756;2022-09-09T03:22:39;100927.44;;;21.88;100.00
35647;BME280;28680;45.642;13.756;2022-09-09T03:25:06;100928.69;;;21.92;100.00
35647;BME280;28680;45.642;13.756;2022-09-09T03:27:32;100924.44;;;21.76;100.00
35647;BME280;28680;45.642;13.756;2022-09-09T03:29:58;100927.97;;;21.83;100.00
35647;BME280;28680;45.642;13.756;2022-09-09T03:32:25;100925.81;;;21.72;100.00
35647;BME280;28680;45.642;13.756;2022-09-09T03:34:52;100924.28;;;21.63;100.00
35647;BME280;28680;45.642;13.756;2022-09-09T03:37:19;100928.53;;;21.57;100.00
35647;BME280;28680;45.642;13.756;2022-09-09T03:39:45;100928.91;;;21.54;100.00
35647;BME280;28680;45.642;13.756;2022-09-09T03:42:15;100925.94;;;21.64;100.00
35647;BME280;28680;45.642;13.756;2022-09-09T03:44:45;100926.47;;;21.74;100.00
35647;BME280;28680;45.642;13.756;2022-09-09T03:47:19;100919.38;;;21.66;100.00
35647;BME280;28680;45.642;13.756;2022-09-09T03:49:47;100920.59;;;21.64;100.00
35647;BME280;28680;45.642;13.756;2022-09-09T03:52:15;100927.88;;;21.55;100.00
35647;BME280;28680;45.642;13.756;2022-09-09T03:54:41;100926.41;;;21.52;100.00
35647;BME280;28680;45.642;13.756;2022-09-09T03:57:09;100933.78;;;21.50;100.00
35647;BME280;28680;45.642;13.756;2022-09-09T03:59:36;100932.59;;;21.53;100.00
35647;BME280;28680;45.642;13.756;2022-09-09T04:02:02;100937.09;;;21.52;100.00
35647;BME280;28680;45.642;13.756;2022-09-09T04:04:28;100935.81;;;21.48;100.00
35647;BME280;28680;45.642;13.756;2022-09-09T04:06:55;100933.88;;;21.57;100.00
35647;BME280;28680;45.642;13.756;2022-09-09T04:09:24;100935.53;;;21.58;100.00
35647;BME280;28680;45.642;13.756;2022-09-09T04:11:49;100940.88;;;21.58;100.00
35647;BME280;28680;45.642;13.756;2022-09-09T04:14:15;100934.72;;;21.57;100.00
35647;BME280;28680;45.642;13.756;2022-09-09T04:16:41;100935.72;;;21.56;100.00
35647;BME280;28680;45.642;13.756;2022-09-09T04:19:11;100938.13;;;21.51;100.00
35647;BME280;28680;45.642;13.756;2022-09-09T04:21:40;100940.41;;;21.54;100.00
35647;BME280;28680;45.642;13.756;2022-09-09T04:24:09;100947.34;;;21.49;100.00
35647;BME280;28680;45.642;13.756;2022-09-09T04:26:36;100962.53;;;21.48;100.00
35647;BME280;28680;45.642;13.756;2022-09-09T04:29:03;100950.00;;;21.49;100.00
35647;BME280;28680;45.642;13.756;2022-09-09T04:31:29;100951.84;;;21.48;100.00
35647;BME280;28680;45.642;13.756;2022-09-09T04:33:55;100957.25;;;21.55;100.00
35647;BME280;28680;45.642;13.756;2022-09-09T04:36:21;100953.00;;;21.60;100.00
35647;BME280;28680;45.642;13.756;2022-09-09T04:38:47;100946.31;;;21.65;100.00
35647;BME280;28680;45.642;13.756;2022-09-09T04:41:16;100941.66;;;21.73;100.00
35647;BME280;28680;45.642;13.756;2022-09-09T04:43:42;100945.19;;;21.74;100.00
35647;BME280;28680;45.642;13.756;2022-09-09T04:46:09;100937.22;;;21.80;100.00
35647;BME280;28680;45.642;13.756;2022-09-09T04:48:34;100934.72;;;21.79;100.00
35647;BME280;28680;45.642;13.756;2022-09-09T04:51:06;100934.34;;;21.82;100.00
35647;BME280;28680;45.642;13.756;2022-09-09T04:53:33;100936.63;;;21.85;100.00
35647;BME280;28680;45.642;13.756;2022-09-09T04:56:12;100926.03;;;21.92;100.00
35647;BME280;28680;45.642;13.756;2022-09-09T04:58:39;100921.00;;;22.04;100.00
35647;BME280;28680;45.642;13.756;2022-09-09T05:01:11;100923.13;;;22.08;100.00
35647;BME280;28680;45.642;13.756;2022-09-09T05:03:37;100922.25;;;22.08;100.00
35647;BME280;28680;45.642;13.756;2022-09-09T05:06:08;100915.09;;;22.08;100.00
35647;BME280;28680;45.642;13.756;2022-09-09T05:08:37;100918.41;;;22.10;100.00
35647;BME280;28680;45.642;13.756;2022-09-09T05:11:13;100931.19;;;22.15;100.00
35647;BME280;28680;45.642;13.756;2022-09-09T05:13:39;100926.91;;;22.20;100.00
35647;BME280;28680;45.642;13.756;2022-09-09T05:16:05;100926.41;;;22.10;100.00
35647;BME280;28680;45.642;13.756;2022-09-09T05:18:31;100927.06;;;22.12;100.00
35647;BME280;28680;45.642;13.756;2022-09-09T05:21:00;100928.38;;;22.02;100.00
35647;BME280;28680;45.642;13.756;2022-09-09T05:23:26;100926.34;;;22.04;100.00
35647;BME280;28680;45.642;13.756;2022-09-09T05:25:57;100916.91;;;22.08;100.00
35647;BME280;28680;45.642;13.756;2022-09-09T05:28:25;100921.72;;;22.12;100.00
35647;BME280;28680;45.642;13.756;2022-09-09T05:31:07;100920.88;;;22.12;100.00
35647;BME280;28680;45.642;13.756;2022-09-09T05:33:34;100921.53;;;22.14;100.00
35647;BME280;28680;45.642;13.756;2022-09-09T05:36:07;100917.97;;;22.28;100.00
35647;BME280;28680;45.642;13.756;2022-09-09T05:38:34;100915.59;;;22.18;100.00
35647;BME280;28680;45.642;13.756;2022-09-09T05:41:02;100925.47;;;22.18;100.00
35647;BME280;28680;45.642;13.756;2022-09-09T05:43:29;100926.34;;;22.04;100.00
35647;BME280;28680;45.642;13.756;2022-09-09T05:46:22;100929.66;;;22.06;100.00
35647;BME280;28680;45.642;13.756;2022-09-09T05:48:49;100937.16;;;22.17;100.00
35647;BME280;28680;45.642;13.756;2022-09-09T05:51:23;100942.47;;;22.10;100.00
35647;BME280;28680;45.642;13.756;2022-09-09T05:53:50;100940.56;;;22.26;100.00
35647;BME280;28680;45.642;13.756;2022-09-09T05:56:22;100941.75;;;22.23;100.00
35647;BME280;28680;45.642;13.756;2022-09-09T05:58:51;100932.16;;;22.29;100.00
35647;BME280;28680;45.642;13.756;2022-09-09T06:01:31;100932.41;;;22.34;100.00
35647;BME280;28680;45.642;13.756;2022-09-09T06:03:58;100931.94;;;22.52;100.00
35647;BME280;28680;45.642;13.756;2022-09-09T06:06:30;100927.59;;;22.51;100.00
35647;BME280;28680;45.642;13.756;2022-09-09T06:08:57;100924.13;;;22.57;100.00
35647;BME280;28680;45.642;13.756;2022-09-09T06:11:28;100897.19;;;22.58;100.00
35647;BME280;28680;45.642;13.756;2022-09-09T06:13:56;100892.56;;;22.74;100.00
35647;BME280;28680;45.642;13.756;2022-09-09T06:16:26;100886.03;;;22.83;100.00
35647;BME280;28680;45.642;13.756;2022-09-09T06:18:54;100887.56;;;22.99;100.00
35647;BME280;28680;45.642;13.756;2022-09-09T06:21:27;100876.34;;;23.10;100.00
35647;BME280;28680;45.642;13.756;2022-09-09T06:23:53;100871.41;;;23.21;100.00
35647;BME280;28680;45.642;13.756;2022-09-09T06:26:22;100881.97;;;23.35;100.00
35647;BME280;28680;45.642;13.756;2022-09-09T06:28:51;100880.97;;;23.43;100.00
35647;BME280;28680;45.642;13.756;2022-09-09T06:31:23;100888.22;;;23.56;100.00
35647;BME280;28680;45.642;13.756;2022-09-09T06:33:52;100886.81;;;23.67;100.00
35647;BME280;28680;45.642;13.756;2022-09-09T06:36:21;100883.31;;;23.73;100.00
35647;BME280;28680;45.642;13.756;2022-09-09T06:38:47;100874.50;;;23.79;100.00
35647;BME280;28680;45.642;13.756;2022-09-09T06:41:17;100875.31;;;23.86;100.00
35647;BME280;28680;45.642;13.756;2022-09-09T06:43:44;100873.69;;;23.92;100.00
35647;BME280;28680;45.642;13.756;2022-09-09T06:48:45;100880.28;;;24.03;100.00
35647;BME280;28680;45.642;13.756;2022-09-09T06:53:43;100871.00;;;24.12;100.00
35647;BME280;28680;45.642;13.756;2022-09-09T06:58:40;100855.13;;;24.24;100.00
35647;BME280;28680;45.642;13.756;2022-09-09T07:01:24;100848.50;;;24.26;100.00
35647;BME280;28680;45.642;13.756;2022-09-09T07:03:54;100838.00;;;24.31;100.00
35647;BME280;28680;45.642;13.756;2022-09-09T07:06:33;100829.94;;;24.25;100.00
35647;BME280;28680;45.642;13.756;2022-09-09T07:09:04;100828.50;;;24.29;100.00
35647;BME280;28680;45.642;13.756;2022-09-09T07:11:36;100823.34;;;24.34;100.00
35647;BME280;28680;45.642;13.756;2022-09-09T07:14:05;100829.31;;;24.43;100.00
35647;BME280;28680;45.642;13.756;2022-09-09T07:16:32;100822.91;;;24.50;100.00
35647;BME280;28680;45.642;13.756;2022-09-09T07:18:58;100824.75;;;24.57;100.00
35647;BME280;28680;45.642;13.756;2022-09-09T07:21:27;100816.50;;;24.58;100.00
35647;BME280;28680;45.642;13.756;2022-09-09T07:23:54;100819.16;;;24.65;100.00
35647;BME280;28680;45.642;13.756;2022-09-09T07:26:23;100823.50;;;24.66;100.00
35647;BME280;28680;45.642;13.756;2022-09-09T07:28:51;100823.25;;;24.74;100.00
35647;BME280;28680;45.642;13.756;2022-09-09T07:31:27;100831.50;;;24.79;100.00
35647;BME280;28680;45.642;13.756;2022-09-09T07:33:54;100821.78;;;24.85;100.00
35647;BME280;28680;45.642;13.756;2022-09-09T07:36:24;100833.69;;;25.02;100.00
35647;BME280;28680;45.642;13.756;2022-09-09T07:38:54;100832.44;;;25.05;100.00
35647;BME280;28680;45.642;13.756;2022-09-09T07:41:46;100829.91;;;25.10;100.00
35647;BME280;28680;45.642;13.756;2022-09-09T07:44:21;100833.41;;;25.17;100.00
35647;BME280;28680;45.642;13.756;2022-09-09T07:46:47;100837.56;;;25.13;100.00
35647;BME280;28680;45.642;13.756;2022-09-09T07:49:13;100835.28;;;25.17;100.00
35647;BME280;28680;45.642;13.756;2022-09-09T07:51:43;100838.63;;;25.05;100.00
35647;BME280;28680;45.642;13.756;2022-09-09T07:54:12;100838.03;;;25.03;100.00
35647;BME280;28680;45.642;13.756;2022-09-09T07:56:40;100843.97;;;25.12;100.00
35647;BME280;28680;45.642;13.756;2022-09-09T07:59:06;100849.28;;;25.25;100.00
35647;BME280;28680;45.642;13.756;2022-09-09T08:01:45;100844.91;;;25.31;100.00
35647;BME280;28680;45.642;13.756;2022-09-09T08:04:15;100844.97;;;25.24;100.00
35647;BME280;28680;45.642;13.756;2022-09-09T08:06:57;100836.88;;;25.31;100.00
35647;BME280;28680;45.642;13.756;2022-09-09T08:09:25;100819.50;;;25.65;100.00
35647;BME280;28680;45.642;13.756;2022-09-09T08:11:53;100825.53;;;25.61;100.00
35647;BME280;28680;45.642;13.756;2022-09-09T08:14:19;100825.72;;;25.59;100.00
35647;BME280;28680;45.642;13.756;2022-09-09T08:16:47;100839.88;;;25.48;100.00
35647;BME280;28680;45.642;13.756;2022-09-09T08:19:14;100844.88;;;25.44;100.00
35647;BME280;28680;45.642;13.756;2022-09-09T08:21:44;100837.09;;;25.29;100.00
35647;BME280;28680;45.642;13.756;2022-09-09T08:24:11;100830.88;;;25.29;100.00
35647;BME280;28680;45.642;13.756;2022-09-09T08:26:41;100816.84;;;25.27;100.00
35647;BME280;28680;45.642;13.756;2022-09-09T08:29:10;100810.41;;;25.35;100.00
35647;BME280;28680;45.642;13.756;2022-09-09T08:31:39;100826.69;;;25.46;100.00
35647;BME280;28680;45.642;13.756;2022-09-09T08:34:06;100820.91;;;25.43;100.00
35647;BME280;28680;45.642;13.756;2022-09-09T08:36:40;100827.50;;;25.47;100.00
35647;BME280;28680;45.642;13.756;2022-09-09T08:39:09;100820.44;;;25.53;100.00
35647;BME280;28680;45.642;13.756;2022-09-09T08:48:40;100822.25;;;26.34;100.00
35647;BME280;28680;45.642;13.756;2022-09-09T08:50:44;100818.91;;;26.94;100.00
35647;BME280;28680;45.642;13.756;2022-09-09T08:53:27;100812.53;;;27.07;100.00
35647;BME280;28680;45.642;13.756;2022-09-09T08:56:04;100809.97;;;26.63;100.00
35647;BME280;28680;45.642;13.756;2022-09-09T08:58:35;100797.81;;;26.73;100.00
35647;BME280;28680;45.642;13.756;2022-09-09T09:09:30;100816.44;;;26.12;100.00
35647;BME280;28680;45.642;13.756;2022-09-09T09:12:01;100824.25;;;25.95;100.00
35647;BME280;28680;45.642;13.756;2022-09-09T09:14:34;100810.47;;;25.85;100.00
35647;BME280;28680;45.642;13.756;2022-09-09T09:17:09;100793.94;;;25.81;100.00
35647;BME280;28680;45.642;13.756;2022-09-09T09:19:40;100774.34;;;25.74;100.00
35647;BME280;28680;45.642;13.756;2022-09-09T09:22:24;100755.41;;;25.69;100.00
35647;BME280;28680;45.642;13.756;2022-09-09T09:25:18;100814.22;;;25.52;100.00
35647;BME280;28680;45.642;13.756;2022-09-09T09:30:20;100902.97;;;24.33;100.00
35647;BME280;28680;45.642;13.756;2022-09-09T09:33:21;100944.91;;;21.69;100.00
35647;BME280;28680;45.642;13.756;2022-09-09T09:35:50;101031.72;;;21.05;100.00
35647;BME280;28680;45.642;13.756;2022-09-09T09:38:29;101107.00;;;20.46;100.00
35647;BME280;28680;45.642;13.756;2022-09-09T09:40:58;101227.31;;;19.71;100.00
35647;BME280;28680;45.642;13.756;2022-09-09T09:43:36;101193.78;;;20.57;100.00
35647;BME280;28680;45.642;13.756;2022-09-09T09:46:20;101051.00;;;20.92;100.00
35647;BME280;28680;45.642;13.756;2022-09-09T09:49:05;101105.03;;;21.32;100.00
35647;BME280;28680;45.642;13.756;2022-09-09T09:51:32;101139.31;;;21.20;100.00
35647;BME280;28680;45.642;13.756;2022-09-09T09:54:27;101056.66;;;22.81;100.00
35647;BME280;28680;45.642;13.756;2022-09-09T09:56:54;101025.84;;;23.48;100.00
35647;BME280;28680;45.642;13.756;2022-09-09T10:04:43;101020.03;;;23.10;100.00
35647;BME280;28680;45.642;13.756;2022-09-09T10:07:16;100980.41;;;23.27;100.00
35647;BME280;28680;45.642;13.756;2022-09-09T10:09:42;100978.06;;;23.52;100.00
35647;BME280;28680;45.642;13.756;2022-09-09T10:15:42;100986.25;;;22.81;100.00
35647;BME280;28680;45.642;13.756;2022-09-09T10:38:30;101038.88;;;21.57;100.00
35647;BME280;28680;45.642;13.756;2022-09-09T10:50:41;101027.31;;;22.23;100.00
35647;BME280;28680;45.642;13.756;2022-09-09T10:53:35;101017.91;;;22.70;100.00
35647;BME280;28680;45.642;13.756;2022-09-09T10:56:10;100978.75;;;23.26;100.00
35647;BME280;28680;45.642;13.756;2022-09-09T10:59:14;100963.50;;;23.74;100.00
35647;BME280;28680;45.642;13.756;2022-09-09T11:04:58;100921.94;;;25.44;100.00
35647;BME280;28680;45.642;13.756;2022-09-09T11:07:47;100907.78;;;26.25;100.00
35647;BME280;28680;45.642;13.756;2022-09-09T11:12:52;100914.75;;;26.08;100.00
35647;BME280;28680;45.642;13.756;2022-09-09T11:15:26;100911.25;;;26.33;100.00
35647;BME280;28680;45.642;13.756;2022-09-09T11:17:58;100904.78;;;26.66;100.00
35647;BME280;28680;45.642;13.756;2022-09-09T11:20:25;100904.16;;;27.00;100.00
35647;BME280;28680;45.642;13.756;2022-09-09T11:23:10;100889.97;;;27.30;100.00
35647;BME280;28680;45.642;13.756;2022-09-09T11:25:48;100882.50;;;27.44;100.00
35647;BME280;28680;45.642;13.756;2022-09-09T11:31:44;100859.97;;;27.80;100.00
35647;BME280;28680;45.642;13.756;2022-09-09T11:40:26;100859.41;;;28.96;100.00
35647;BME280;28680;45.642;13.756;2022-09-09T11:43:09;100863.25;;;29.01;100.00
35647;BME280;28680;45.642;13.756;2022-09-09T11:45:38;100855.75;;;29.03;100.00
35647;BME280;28680;45.642;13.756;2022-09-09T11:48:05;100852.00;;;29.32;100.00
35647;BME280;28680;45.642;13.756;2022-09-09T11:51:08;100850.91;;;29.05;100.00
35647;BME280;28680;45.642;13.756;2022-09-09T11:53:46;100854.53;;;28.70;100.00
35647;BME280;28680;45.642;13.756;2022-09-09T11:56:28;100851.84;;;28.34;100.00
35647;BME280;28680;45.642;13.756;2022-09-09T12:01:44;100847.03;;;28.72;100.00
35647;BME280;28680;45.642;13.756;2022-09-09T12:04:21;100836.28;;;28.89;100.00
35647;BME280;28680;45.642;13.756;2022-09-09T12:12:41;100829.41;;;29.39;100.00
35647;BME280;28680;45.642;13.756;2022-09-09T12:17:44;100815.28;;;29.20;100.00
35647;BME280;28680;45.642;13.756;2022-09-09T12:20:36;100813.78;;;29.41;100.00
35647;BME280;28680;45.642;13.756;2022-09-09T12:29:45;100805.69;;;30.08;100.00
35647;BME280;28680;45.642;13.756;2022-09-09T12:32:22;100803.44;;;30.22;100.00
35647;BME280;28680;45.642;13.756;2022-09-09T12:35:18;100785.38;;;30.28;100.00
35647;BME280;28680;45.642;13.756;2022-09-09T12:37:55;100782.56;;;30.84;100.00
35647;BME280;28680;45.642;13.756;2022-09-09T12:40:27;100779.50;;;31.94;100.00
35647;BME280;28680;45.642;13.756;2022-09-09T12:42:54;100782.19;;;32.42;100.00
35647;BME280;28680;45.642;13.756;2022-09-09T12:45:27;100771.16;;;32.59;100.00
35647;BME280;28680;45.642;13.756;2022-09-09T12:48:09;100748.78;;;32.36;100.00
35647;BME280;28680;45.642;13.756;2022-09-09T12:50:50;100757.41;;;32.96;100.00
35647;BME280;28680;45.642;13.756;2022-09-09T12:53:33;100767.50;;;31.85;100.00
35647;BME280;28680;45.642;13.756;2022-09-09T12:56:09;100763.25;;;31.62;100.00
35647;BME280;28680;45.642;13.756;2022-09-09T12:58:50;100759.72;;;31.02;100.00
35647;BME280;28680;45.642;13.756;2022-09-09T13:01:32;100759.19;;;31.32;100.00
35647;BME280;28680;45.642;13.756;2022-09-09T13:03:59;100759.75;;;32.04;100.00
35647;BME280;28680;45.642;13.756;2022-09-09T13:06:33;100750.56;;;31.35;100.00
35647;BME280;28680;45.642;13.756;2022-09-09T13:09:01;100754.69;;;31.75;100.00
35647;BME280;28680;45.642;13.756;2022-09-09T13:11:42;100752.13;;;32.01;100.00
35647;BME280;28680;45.642;13.756;2022-09-09T13:14:27;100744.31;;;32.10;100.00
35647;BME280;28680;45.642;13.756;2022-09-09T13:17:03;100736.78;;;31.74;100.00
35647;BME280;28680;45.642;13.756;2022-09-09T13:19:36;100737.50;;;32.02;100.00
35647;BME280;28680;45.642;13.756;2022-09-09T13:22:39;100731.69;;;31.88;100.00
35647;BME280;28680;45.642;13.756;2022-09-09T13:27:41;100717.41;;;31.60;100.00
35647;BME280;28680;45.642;13.756;2022-09-09T13:30:33;100709.94;;;31.83;100.00
35647;BME280;28680;45.642;13.756;2022-09-09T13:36:03;100717.88;;;31.90;100.00
35647;BME280;28680;45.642;13.756;2022-09-09T13:41:35;100708.91;;;31.89;100.00
35647;BME280;28680;45.642;13.756;2022-09-09T13:44:03;100714.94;;;32.01;100.00
35647;BME280;28680;45.642;13.756;2022-09-09T13:46:40;100697.97;;;32.27;100.00
35647;BME280;28680;45.642;13.756;2022-09-09T13:51:38;100696.63;;;32.29;100.00
35647;BME280;28680;45.642;13.756;2022-09-09T13:54:06;100695.38;;;32.57;100.00
35647;BME280;28680;45.642;13.756;2022-09-09T13:56:37;100691.47;;;32.28;100.00
35647;BME280;28680;45.642;13.756;2022-09-09T13:59:09;100696.91;;;32.38;100.00
35647;BME280;28680;45.642;13.756;2022-09-09T14:01:36;100692.41;;;32.79;100.00
35647;BME280;28680;45.642;13.756;2022-09-09T14:04:03;100690.53;;;32.80;100.00
35647;BME280;28680;45.642;13.756;2022-09-09T14:06:32;100690.25;;;32.71;100.00
35647;BME280;28680;45.642;13.756;2022-09-09T14:09:00;100682.66;;;32.99;100.00
35647;BME280;28680;45.642;13.756;2022-09-09T14:11:29;100685.13;;;33.11;100.00
35647;BME280;28680;45.642;13.756;2022-09-09T14:13:55;100685.69;;;33.18;100.00
35647;BME280;28680;45.642;13.756;2022-09-09T14:16:21;100684.28;;;32.95;100.00
35647;BME280;28680;45.642;13.756;2022-09-09T14:18:51;100683.94;;;32.55;100.00
35647;BME280;28680;45.642;13.756;2022-09-09T14:21:19;100683.75;;;33.29;100.00
35647;BME280;28680;45.642;13.756;2022-09-09T14:23:47;100692.44;;;33.51;100.00
35647;BME280;28680;45.642;13.756;2022-09-09T14:26:14;100686.75;;;33.07;100.00
35647;BME280;28680;45.642;13.756;2022-09-09T14:28:40;100688.34;;;32.87;100.00
35647;BME280;28680;45.642;13.756;2022-09-09T14:31:06;100690.78;;;32.73;100.00
35647;BME280;28680;45.642;13.756;2022-09-09T14:33:32;100690.69;;;32.48;100.00
35647;BME280;28680;45.642;13.756;2022-09-09T14:36:02;100681.75;;;32.52;100.00
35647;BME280;28680;45.642;13.756;2022-09-09T14:38:37;100688.06;;;32.83;100.00
35647;BME280;28680;45.642;13.756;2022-09-09T14:41:11;100685.91;;;32.65;100.00
35647;BME280;28680;45.642;13.756;2022-09-09T14:43:39;100688.78;;;32.38;100.00
35647;BME280;28680;45.642;13.756;2022-09-09T14:46:11;100681.81;;;32.83;100.00
35647;BME280;28680;45.642;13.756;2022-09-09T14:48:38;100684.28;;;32.85;100.00
35647;BME280;28680;45.642;13.756;2022-09-09T14:53:36;100685.63;;;32.77;100.00
35647;BME280;28680;45.642;13.756;2022-09-09T14:56:11;100692.19;;;32.91;100.00
35647;BME280;28680;45.642;13.756;2022-09-09T14:58:38;100698.69;;;33.00;100.00
35647;BME280;28680;45.642;13.756;2022-09-09T15:01:10;100700.31;;;32.71;100.00
35647;BME280;28680;45.642;13.756;2022-09-09T15:03:48;100697.31;;;32.67;100.00
35647;BME280;28680;45.642;13.756;2022-09-09T15:06:15;100697.44;;;32.30;100.00
35647;BME280;28680;45.642;13.756;2022-09-09T15:08:43;100694.03;;;32.60;100.00
35647;BME280;28680;45.642;13.756;2022-09-09T15:11:13;100698.69;;;32.90;100.00
35647;BME280;28680;45.642;13.756;2022-09-09T15:13:41;100699.53;;;33.32;100.00
35647;BME280;28680;45.642;13.756;2022-09-09T15:16:16;100687.31;;;33.19;100.00
35647;BME280;28680;45.642;13.756;2022-09-09T15:18:43;100695.69;;;32.87;100.00
35647;BME280;28680;45.642;13.756;2022-09-09T15:21:17;100695.63;;;32.56;100.00
35647;BME280;28680;45.642;13.756;2022-09-09T15:23:44;100700.75;;;32.47;100.00
35647;BME280;28680;45.642;13.756;2022-09-09T15:26:11;100710.66;;;32.11;100.00
35647;BME280;28680;45.642;13.756;2022-09-09T15:28:41;100722.63;;;31.67;100.00
35647;BME280;28680;45.642;13.756;2022-09-09T15:31:27;100725.59;;;31.33;100.00
35647;BME280;28680;45.642;13.756;2022-09-09T15:33:57;100731.97;;;30.89;100.00
35647;BME280;28680;45.642;13.756;2022-09-09T15:36:41;100748.22;;;30.01;100.00
35647;BME280;28680;45.642;13.756;2022-09-09T15:39:10;100754.78;;;29.09;100.00
35647;BME280;28680;45.642;13.756;2022-09-09T15:41:39;100746.03;;;28.32;100.00
35647;BME280;28680;45.642;13.756;2022-09-09T15:44:05;100733.84;;;28.18;100.00
35647;BME280;28680;45.642;13.756;2022-09-09T15:46:35;100721.09;;;28.02;100.00
35647;BME280;28680;45.642;13.756;2022-09-09T15:49:18;100731.94;;;28.30;100.00
35647;BME280;28680;45.642;13.756;2022-09-09T15:51:53;100730.66;;;28.73;100.00
35647;BME280;28680;45.642;13.756;2022-09-09T15:54:21;100726.88;;;29.03;100.00